KLCH

Lake Charles Regional Airport

Lake Charles, Louisiana, USA
METAR KLCH 220153Z 00000KT 10SM CLR 26/23 A2997 RMK AO2 LTG DSNT NE SLP158 T02560233
Observed Flight Rules
May-22 @ 01:53 UTC (47 minutes ago) Visual Flight Rules
Visibility Clouds
10 miles
  • Clear skies
Temperatures Readings
Current 26°C / 79°F
Dewpoint 23°C / 73°F
Humidity 84%
Altimeter 29.97" Hg
Pressure 1015.8 hPa
Elevation 4
METAR KLCH 220153Z 00000KT 10SM CLR 26/23 A2997 RMK AO2 LTG DSNT NE SLP158 T02560233
Observed Flight Rules
May-22 @ 01:53 UTC
(47 minutes ago)
VFR
Clouds
  • Clear skies
Temperature Dewpoint
26°C / 79°F 23°C / 73°F
Humidity Altimeter Pressure
84% 29.97" Hg 1015.8 hPa